BON330K FACT-FKKD
Flight info
| Callsign | BON330K |
|---|---|
| Flight time | 5h 15m |
| Altitude | 37000 |
| Route | CTV DCT KODES UN186 ATUPI/N0475F360 UM436 ANVAG/N0425F240 R987 ARGOL/N0476F380 UN187 VNA UR526 LIKAD UY339 MESIN UG861 ARASI/N0475F390 UH455 ETNOM ETNOM1M |
| Aircraft | B772/H-SDE1E2E3FGHIJ2J3J4J5M1RWXYZ/LB1D1 |
Departure
| Time | 2026-04-22 07:11 |
|---|---|
| Airport | Cape Town International Airport (FACT) |
Arrival
| Time | 2026-04-22 12:26 |
|---|---|
| Airport | Douala International Airport (FKKD) |
| Time | Latitude | Longitude | Altitude | Speed | Heading |
|---|---|---|---|---|---|
| 2026-04-22 07:03 | -33.96844 | 18.59875 | 171 ft | 4 kts | 317° |
| 2026-04-22 07:04 | -33.96862 | 18.59889 | 171 ft | 1 kts | 345° |
| 2026-04-22 07:04 | -33.96863 | 18.59890 | 171 ft | 0 kts | 345° |
| 2026-04-22 07:06 | -33.96844 | 18.59884 | 171 ft | 4 kts | 345° |
| 2026-04-22 07:06 | -33.96805 | 18.59871 | 171 ft | 7 kts | 345° |
| 2026-04-22 07:07 | -33.96755 | 18.59854 | 171 ft | 7 kts | 345° |
| 2026-04-22 07:07 | -33.96705 | 18.59838 | 171 ft | 7 kts | 345° |
| 2026-04-22 07:07 | -33.96655 | 18.59822 | 171 ft | 7 kts | 345° |
| 2026-04-22 07:07 | -33.96587 | 18.59803 | 171 ft | 11 kts | 347° |
| 2026-04-22 07:08 | -33.96512 | 18.59781 | 172 ft | 11 kts | 349° |
| 2026-04-22 07:08 | -33.96437 | 18.59764 | 172 ft | 11 kts | 350° |
| 2026-04-22 07:08 | -33.96362 | 18.59748 | 172 ft | 11 kts | 349° |
| 2026-04-22 07:08 | -33.96286 | 18.59731 | 172 ft | 11 kts | 349° |
| 2026-04-22 07:09 | -33.96214 | 18.59743 | 172 ft | 11 kts | 36° |
| 2026-04-22 07:09 | -33.96159 | 18.59808 | 172 ft | 11 kts | 45° |
| 2026-04-22 07:09 | -33.96105 | 18.59874 | 172 ft | 11 kts | 45° |
| 2026-04-22 07:09 | -33.96050 | 18.59939 | 172 ft | 11 kts | 45° |
| 2026-04-22 07:10 | -33.96020 | 18.60001 | 169 ft | 5 kts | 100° |
| 2026-04-22 07:10 | -33.96052 | 18.60023 | 170 ft | 10 kts | 165° |
| 2026-04-22 07:10 | -33.96277 | 18.60091 | 169 ft | 67 kts | 165° |
| 2026-04-22 07:10 | -33.96965 | 18.60311 | 169 ft | 136 kts | 165° |
| 2026-04-22 07:11 | -33.98033 | 18.60631 | 455 ft | 165 kts | 164° |
| 2026-04-22 07:11 | -33.99158 | 18.60992 | 1206 ft | 167 kts | 163° |
| 2026-04-22 07:11 | -34.00267 | 18.61359 | 1938 ft | 170 kts | 163° |
| 2026-04-22 07:11 | -34.01450 | 18.61566 | 2520 ft | 174 kts | 185° |
| 2026-04-22 07:12 | -34.02542 | 18.60998 | 3077 ft | 179 kts | 224° |
| 2026-04-22 07:12 | -34.03109 | 18.59655 | 3568 ft | 192 kts | 261° |
| 2026-04-22 07:12 | -34.02878 | 18.57951 | 3805 ft | 218 kts | 297° |
| 2026-04-22 07:12 | -34.01824 | 18.56576 | 4003 ft | 239 kts | 330° |
| 2026-04-22 07:13 | -34.00217 | 18.55822 | 4264 ft | 256 kts | 344° |
| 2026-04-22 07:13 | -33.98491 | 18.55188 | 4734 ft | 267 kts | 344° |
| 2026-04-22 07:13 | -33.96690 | 18.54530 | 5351 ft | 273 kts | 344° |
| 2026-04-22 07:13 | -33.94854 | 18.53866 | 5937 ft | 278 kts | 344° |
| 2026-04-22 07:14 | -33.92987 | 18.53197 | 6599 ft | 282 kts | 345° |
| 2026-04-22 07:14 | -33.91103 | 18.52522 | 7252 ft | 284 kts | 345° |
| 2026-04-22 07:14 | -33.89190 | 18.51846 | 7842 ft | 288 kts | 345° |
| 2026-04-22 07:14 | -33.87246 | 18.51158 | 8405 ft | 293 kts | 344° |
| 2026-04-22 07:15 | -33.85278 | 18.50458 | 8970 ft | 297 kts | 345° |
| 2026-04-22 07:15 | -33.83287 | 18.49752 | 9536 ft | 300 kts | 344° |
| 2026-04-22 07:15 | -33.81270 | 18.49039 | 10082 ft | 304 kts | 344° |
| 2026-04-22 07:15 | -33.79217 | 18.48456 | 10489 ft | 305 kts | 359° |
| 2026-04-22 07:16 | -33.77079 | 18.48778 | 10616 ft | 319 kts | 16° |
| 2026-04-22 07:16 | -33.74901 | 18.49587 | 10764 ft | 336 kts | 21° |
| 2026-04-22 07:16 | -33.72642 | 18.50572 | 10923 ft | 355 kts | 22° |
| 2026-04-22 07:16 | -33.70295 | 18.51630 | 11382 ft | 366 kts | 22° |
| 2026-04-22 07:17 | -33.67881 | 18.52714 | 12002 ft | 374 kts | 21° |
| 2026-04-22 07:17 | -33.65419 | 18.53805 | 12732 ft | 380 kts | 21° |
| 2026-04-22 07:17 | -33.62919 | 18.54898 | 13542 ft | 384 kts | 20° |
| 2026-04-22 07:17 | -33.60387 | 18.55995 | 14306 ft | 389 kts | 20° |
| 2026-04-22 07:18 | -33.57817 | 18.57099 | 15014 ft | 395 kts | 19° |
| 2026-04-22 07:18 | -33.55217 | 18.58211 | 15739 ft | 399 kts | 19° |
| 2026-04-22 07:18 | -33.52584 | 18.59336 | 16443 ft | 404 kts | 18° |
| 2026-04-22 07:18 | -33.49925 | 18.60470 | 17113 ft | 408 kts | 18° |
| 2026-04-22 07:19 | -33.47231 | 18.61619 | 17749 ft | 413 kts | 17° |
| 2026-04-22 07:19 | -33.44507 | 18.62781 | 18379 ft | 418 kts | 17° |
| 2026-04-22 07:19 | -33.41754 | 18.63955 | 18992 ft | 422 kts | 17° |
| 2026-04-22 07:19 | -33.38979 | 18.65137 | 19577 ft | 425 kts | 17° |
| 2026-04-22 07:20 | -33.36176 | 18.66329 | 20139 ft | 430 kts | 16° |
| 2026-04-22 07:20 | -33.33383 | 18.67517 | 20684 ft | 433 kts | 17° |
| 2026-04-22 07:20 | -33.30504 | 18.68742 | 21235 ft | 437 kts | 16° |
| 2026-04-22 07:20 | -33.27623 | 18.69966 | 21744 ft | 440 kts | 16° |
| 2026-04-22 07:21 | -33.24761 | 18.71181 | 22254 ft | 444 kts | 15° |
| 2026-04-22 07:21 | -33.21845 | 18.72418 | 22764 ft | 447 kts | 15° |
| 2026-04-22 07:21 | -33.18905 | 18.73662 | 23247 ft | 449 kts | 14° |
| 2026-04-22 07:21 | -33.15892 | 18.74615 | 23662 ft | 448 kts | 4° |
| 2026-04-22 07:22 | -33.12795 | 18.74964 | 24118 ft | 445 kts | 355° |
| 2026-04-22 07:22 | -33.09723 | 18.74803 | 24658 ft | 439 kts | 347° |
| 2026-04-22 07:22 | -33.06703 | 18.74255 | 25111 ft | 440 kts | 345° |
| 2026-04-22 07:22 | -33.03677 | 18.73660 | 25558 ft | 443 kts | 345° |
| 2026-04-22 07:23 | -33.00629 | 18.73055 | 25995 ft | 445 kts | 345° |
| 2026-04-22 07:23 | -32.97563 | 18.72453 | 26476 ft | 447 kts | 345° |
| 2026-04-22 07:23 | -32.94484 | 18.71860 | 26929 ft | 450 kts | 345° |
| 2026-04-22 07:23 | -32.91384 | 18.71272 | 27361 ft | 452 kts | 345° |
| 2026-04-22 07:24 | -32.88274 | 18.70689 | 27811 ft | 454 kts | 346° |
| 2026-04-22 07:24 | -32.85144 | 18.70116 | 28202 ft | 456 kts | 346° |
| 2026-04-22 07:24 | -32.81994 | 18.69532 | 28591 ft | 459 kts | 346° |
| 2026-04-22 07:24 | -32.78826 | 18.68943 | 28978 ft | 462 kts | 346° |
| 2026-04-22 07:25 | -32.75642 | 18.68353 | 29348 ft | 465 kts | 346° |
| 2026-04-22 07:25 | -32.72439 | 18.67760 | 29716 ft | 467 kts | 346° |
| 2026-04-22 07:25 | -32.69220 | 18.67167 | 30097 ft | 469 kts | 346° |
| 2026-04-22 07:25 | -32.65988 | 18.66572 | 30465 ft | 470 kts | 346° |
| 2026-04-22 07:26 | -32.62753 | 18.65978 | 30823 ft | 472 kts | 346° |
| 2026-04-22 07:26 | -32.59503 | 18.65379 | 31145 ft | 474 kts | 346° |
| 2026-04-22 07:26 | -32.56235 | 18.64780 | 31454 ft | 476 kts | 346° |
| 2026-04-22 07:26 | -32.52958 | 18.64179 | 31763 ft | 477 kts | 346° |
| 2026-04-22 07:27 | -32.49675 | 18.63578 | 32068 ft | 478 kts | 346° |
| 2026-04-22 07:27 | -32.46378 | 18.62974 | 32353 ft | 479 kts | 346° |
| 2026-04-22 07:27 | -32.43078 | 18.62370 | 32639 ft | 480 kts | 346° |
| 2026-04-22 07:27 | -32.39822 | 18.61775 | 32960 ft | 480 kts | 346° |
| 2026-04-22 07:28 | -32.33249 | 18.60573 | 33713 ft | 476 kts | 346° |
| 2026-04-22 07:28 | -32.29986 | 18.59979 | 34102 ft | 474 kts | 346° |
| 2026-04-22 07:28 | -32.26734 | 18.59385 | 34442 ft | 472 kts | 346° |
| 2026-04-22 07:29 | -32.23489 | 18.58792 | 34766 ft | 471 kts | 346° |
| 2026-04-22 07:29 | -32.20251 | 18.58199 | 35056 ft | 470 kts | 346° |
| 2026-04-22 07:29 | -32.17024 | 18.57610 | 35335 ft | 470 kts | 346° |
| 2026-04-22 07:29 | -32.13795 | 18.57022 | 35637 ft | 469 kts | 345° |
| 2026-04-22 07:30 | -32.10576 | 18.56438 | 35951 ft | 467 kts | 345° |
| 2026-04-22 07:30 | -32.07373 | 18.55857 | 36249 ft | 466 kts | 345° |
| 2026-04-22 07:30 | -32.04161 | 18.55273 | 36500 ft | 466 kts | 345° |
| 2026-04-22 07:30 | -32.00967 | 18.54692 | 36784 ft | 464 kts | 345° |
| 2026-04-22 07:31 | -31.97798 | 18.54118 | 37307 ft | 456 kts | 345° |
| 2026-04-22 07:31 | -31.94699 | 18.53562 | 37883 ft | 447 kts | 345° |
| 2026-04-22 07:31 | -31.91628 | 18.53009 | 38112 ft | 447 kts | 345° |
| 2026-04-22 07:31 | -31.88551 | 18.52448 | 38271 ft | 448 kts | 345° |
| 2026-04-22 07:32 | -31.85465 | 18.51885 | 38394 ft | 450 kts | 345° |
| 2026-04-22 07:32 | -31.82376 | 18.51322 | 38517 ft | 451 kts | 345° |
| 2026-04-22 07:32 | -31.79275 | 18.50760 | 38683 ft | 451 kts | 345° |
| 2026-04-22 07:32 | -31.76170 | 18.50200 | 38871 ft | 450 kts | 345° |
| 2026-04-22 07:33 | -31.73077 | 18.49643 | 39076 ft | 449 kts | 345° |
| 2026-04-22 07:33 | -31.69991 | 18.49086 | 39179 ft | 450 kts | 345° |
| 2026-04-22 07:33 | -31.63764 | 18.47961 | 39273 ft | 454 kts | 345° |
| 2026-04-22 07:34 | -31.57498 | 18.46831 | 39281 ft | 458 kts | 345° |
| 2026-04-22 07:34 | -31.52250 | 18.45889 | 39283 ft | 460 kts | 345° |
| 2026-04-22 07:35 | -31.44870 | 18.44567 | 39277 ft | 462 kts | 345° |
| 2026-04-22 07:35 | -31.39579 | 18.43623 | 39267 ft | 455 kts | 345° |
| 2026-04-22 07:36 | -31.33373 | 18.42515 | 39271 ft | 450 kts | 345° |
| 2026-04-22 07:36 | -31.27204 | 18.41410 | 39263 ft | 448 kts | 345° |
| 2026-04-22 07:37 | -31.21048 | 18.40308 | 39265 ft | 448 kts | 345° |
| 2026-04-22 07:37 | -31.14879 | 18.39206 | 39273 ft | 449 kts | 345° |
| 2026-04-22 07:38 | -31.08693 | 18.38105 | 39263 ft | 450 kts | 345° |
| 2026-04-22 07:38 | -31.02499 | 18.37003 | 39269 ft | 451 kts | 345° |
| 2026-04-22 07:39 | -30.96327 | 18.35908 | 39274 ft | 452 kts | 345° |
| 2026-04-22 07:39 | -30.90115 | 18.34806 | 39265 ft | 451 kts | 345° |
| 2026-04-22 07:40 | -30.83898 | 18.33704 | 39266 ft | 452 kts | 345° |
| 2026-04-22 07:40 | -30.77668 | 18.32600 | 39260 ft | 453 kts | 345° |
| 2026-04-22 07:41 | -30.71430 | 18.31501 | 39255 ft | 454 kts | 345° |
| 2026-04-22 07:41 | -30.65188 | 18.30399 | 39257 ft | 454 kts | 345° |
| 2026-04-22 07:42 | -30.58941 | 18.29296 | 39258 ft | 454 kts | 345° |
| 2026-04-22 07:42 | -30.52684 | 18.28196 | 39255 ft | 454 kts | 345° |
| 2026-04-22 07:43 | -30.46432 | 18.27100 | 39246 ft | 454 kts | 345° |
| 2026-04-22 07:43 | -30.40196 | 18.26006 | 39254 ft | 453 kts | 345° |
| 2026-04-22 07:44 | -30.33970 | 18.24915 | 39240 ft | 452 kts | 345° |
| 2026-04-22 07:44 | -30.27753 | 18.23824 | 39254 ft | 452 kts | 345° |
| 2026-04-22 07:45 | -30.21532 | 18.22735 | 39244 ft | 452 kts | 345° |
| 2026-04-22 07:45 | -30.15320 | 18.21650 | 39247 ft | 451 kts | 345° |
| 2026-04-22 07:46 | -30.09108 | 18.20566 | 39245 ft | 452 kts | 345° |
| 2026-04-22 07:46 | -30.02888 | 18.19482 | 39244 ft | 453 kts | 345° |
| 2026-04-22 07:47 | -29.96648 | 18.18396 | 39244 ft | 454 kts | 345° |
| 2026-04-22 07:47 | -29.90398 | 18.17309 | 39242 ft | 455 kts | 345° |
| 2026-04-22 07:48 | -29.84174 | 18.16231 | 39226 ft | 455 kts | 345° |
| 2026-04-22 07:48 | -29.77915 | 18.15146 | 39229 ft | 455 kts | 345° |
| 2026-04-22 07:49 | -29.71656 | 18.14061 | 39220 ft | 454 kts | 345° |
| 2026-04-22 07:49 | -29.65408 | 18.12981 | 39221 ft | 454 kts | 345° |
| 2026-04-22 07:50 | -29.59175 | 18.11905 | 39211 ft | 453 kts | 345° |
| 2026-04-22 07:50 | -29.52948 | 18.10832 | 39213 ft | 452 kts | 345° |
| 2026-04-22 07:51 | -29.46737 | 18.09762 | 39208 ft | 451 kts | 345° |
| 2026-04-22 07:51 | -29.40542 | 18.08696 | 39215 ft | 450 kts | 345° |
| 2026-04-22 07:52 | -29.34357 | 18.07633 | 39200 ft | 449 kts | 345° |
| 2026-04-22 07:52 | -29.28182 | 18.06573 | 39207 ft | 448 kts | 345° |
| 2026-04-22 07:53 | -29.22029 | 18.05516 | 39199 ft | 447 kts | 345° |
| 2026-04-22 07:53 | -29.15889 | 18.04466 | 39198 ft | 446 kts | 345° |
| 2026-04-22 07:54 | -29.09757 | 18.03418 | 39198 ft | 445 kts | 345° |
| 2026-04-22 07:54 | -29.03633 | 18.02372 | 39195 ft | 444 kts | 345° |
| 2026-04-22 07:55 | -28.97530 | 18.01331 | 39230 ft | 443 kts | 345° |
| 2026-04-22 07:55 | -28.91425 | 18.00289 | 39223 ft | 443 kts | 345° |
| 2026-04-22 07:56 | -28.85326 | 17.99247 | 39224 ft | 444 kts | 345° |
| 2026-04-22 07:56 | -28.79192 | 17.98207 | 39221 ft | 446 kts | 345° |
| 2026-04-22 07:57 | -28.73038 | 17.97164 | 39226 ft | 447 kts | 345° |
| 2026-04-22 07:57 | -28.66875 | 17.96117 | 39228 ft | 448 kts | 345° |
| 2026-04-22 07:58 | -28.60738 | 17.95078 | 39218 ft | 449 kts | 345° |
| 2026-04-22 07:58 | -28.54562 | 17.94034 | 39220 ft | 449 kts | 345° |
| 2026-04-22 07:59 | -28.48390 | 17.92991 | 39216 ft | 448 kts | 345° |
| 2026-04-22 07:59 | -28.42234 | 17.91953 | 39221 ft | 446 kts | 345° |
| 2026-04-22 08:00 | -28.36104 | 17.90918 | 39221 ft | 445 kts | 345° |
| 2026-04-22 08:00 | -28.29976 | 17.89886 | 39197 ft | 444 kts | 345° |
| 2026-04-22 08:01 | -28.23866 | 17.88886 | 39199 ft | 444 kts | 347° |
| 2026-04-22 08:01 | -28.17679 | 17.88380 | 39208 ft | 446 kts | 349° |
| 2026-04-22 08:02 | -28.11496 | 17.87934 | 39178 ft | 446 kts | 349° |
| 2026-04-22 08:02 | -28.05304 | 17.87461 | 39153 ft | 446 kts | 349° |
| 2026-04-22 08:03 | -27.99112 | 17.86980 | 39145 ft | 446 kts | 349° |
| 2026-04-22 08:03 | -27.92927 | 17.86500 | 39145 ft | 445 kts | 349° |
| 2026-04-22 08:04 | -27.86755 | 17.86019 | 39157 ft | 444 kts | 349° |
| 2026-04-22 08:04 | -27.80583 | 17.85538 | 39168 ft | 445 kts | 349° |
| 2026-04-22 08:05 | -27.74404 | 17.85058 | 39166 ft | 445 kts | 349° |
| 2026-04-22 08:05 | -27.68217 | 17.84578 | 39159 ft | 446 kts | 349° |
| 2026-04-22 08:06 | -27.62006 | 17.84096 | 39157 ft | 447 kts | 349° |
| 2026-04-22 08:06 | -27.55839 | 17.83620 | 39154 ft | 447 kts | 349° |
| 2026-04-22 08:07 | -27.49651 | 17.83033 | 39158 ft | 443 kts | 345° |
| 2026-04-22 08:07 | -27.43560 | 17.82014 | 39152 ft | 442 kts | 345° |
| 2026-04-22 08:08 | -27.37478 | 17.80976 | 39148 ft | 442 kts | 345° |
| 2026-04-22 08:08 | -27.31395 | 17.79954 | 39149 ft | 442 kts | 345° |
| 2026-04-22 08:09 | -27.25320 | 17.78942 | 39146 ft | 441 kts | 345° |
| 2026-04-22 08:09 | -27.19248 | 17.77933 | 39138 ft | 441 kts | 345° |
| 2026-04-22 08:10 | -27.13180 | 17.76927 | 39144 ft | 440 kts | 345° |
| 2026-04-22 08:10 | -27.07121 | 17.75925 | 39131 ft | 440 kts | 344° |
| 2026-04-22 08:11 | -27.01077 | 17.74926 | 39141 ft | 439 kts | 344° |
| 2026-04-22 08:11 | -26.95046 | 17.73928 | 39130 ft | 438 kts | 344° |
| 2026-04-22 08:12 | -26.89024 | 17.72935 | 39129 ft | 437 kts | 344° |
| 2026-04-22 08:12 | -26.83009 | 17.71943 | 39131 ft | 436 kts | 344° |
| 2026-04-22 08:13 | -26.77004 | 17.70952 | 39132 ft | 435 kts | 344° |
| 2026-04-22 08:13 | -26.71017 | 17.69970 | 39124 ft | 434 kts | 344° |
| 2026-04-22 08:14 | -26.65038 | 17.68986 | 39123 ft | 434 kts | 344° |
| 2026-04-22 08:14 | -26.59089 | 17.68009 | 39190 ft | 432 kts | 344° |
| 2026-04-22 08:15 | -26.53148 | 17.67033 | 39205 ft | 432 kts | 343° |
| 2026-04-22 08:15 | -26.47201 | 17.66057 | 39181 ft | 432 kts | 344° |
| 2026-04-22 08:16 | -26.41263 | 17.65086 | 39138 ft | 432 kts | 343° |
| 2026-04-22 08:16 | -26.35316 | 17.64113 | 39122 ft | 431 kts | 343° |
| 2026-04-22 08:17 | -26.29390 | 17.63146 | 39122 ft | 430 kts | 343° |
| 2026-04-22 08:17 | -26.23483 | 17.62180 | 39121 ft | 429 kts | 343° |
| 2026-04-22 08:18 | -26.17628 | 17.61224 | 39120 ft | 428 kts | 343° |
| 2026-04-22 08:18 | -26.11735 | 17.60263 | 39120 ft | 427 kts | 343° |
| 2026-04-22 08:19 | -26.05855 | 17.59305 | 39120 ft | 427 kts | 343° |
| 2026-04-22 08:19 | -25.99973 | 17.58348 | 39120 ft | 428 kts | 343° |
| 2026-04-22 08:20 | -25.94084 | 17.57390 | 39121 ft | 428 kts | 343° |
| 2026-04-22 08:20 | -25.88195 | 17.56433 | 39119 ft | 428 kts | 343° |
| 2026-04-22 08:21 | -25.82295 | 17.55479 | 39122 ft | 428 kts | 343° |
| 2026-04-22 08:21 | -25.76396 | 17.54522 | 39119 ft | 428 kts | 343° |
| 2026-04-22 08:22 | -25.70510 | 17.53569 | 39129 ft | 428 kts | 343° |
| 2026-04-22 08:22 | -25.65614 | 17.52777 | 39131 ft | 428 kts | 343° |
| 2026-04-22 08:23 | -25.58759 | 17.51667 | 39131 ft | 429 kts | 343° |
| 2026-04-22 08:23 | -25.52849 | 17.50714 | 39140 ft | 430 kts | 343° |
| 2026-04-22 08:24 | -25.46922 | 17.49758 | 39126 ft | 431 kts | 343° |
| 2026-04-22 08:24 | -25.40993 | 17.48804 | 39141 ft | 431 kts | 343° |
| 2026-04-22 08:25 | -25.35047 | 17.47846 | 39143 ft | 432 kts | 343° |
| 2026-04-22 08:25 | -25.30062 | 17.47044 | 39139 ft | 433 kts | 343° |
| 2026-04-22 08:26 | -25.24103 | 17.46087 | 39139 ft | 433 kts | 343° |
| 2026-04-22 08:26 | -25.18180 | 17.45137 | 39149 ft | 433 kts | 343° |
| 2026-04-22 08:27 | -25.12230 | 17.44183 | 39162 ft | 432 kts | 343° |
| 2026-04-22 08:27 | -25.06271 | 17.43228 | 39163 ft | 432 kts | 343° |
| 2026-04-22 08:28 | -25.00315 | 17.42274 | 39168 ft | 432 kts | 343° |
| 2026-04-22 08:28 | -24.94355 | 17.41320 | 39167 ft | 433 kts | 343° |
| 2026-04-22 08:29 | -24.88391 | 17.40367 | 39175 ft | 433 kts | 343° |
| 2026-04-22 08:29 | -24.82430 | 17.39415 | 39176 ft | 433 kts | 343° |
| 2026-04-22 08:30 | -24.76459 | 17.38462 | 39175 ft | 433 kts | 343° |
| 2026-04-22 08:30 | -24.70494 | 17.37512 | 39177 ft | 433 kts | 343° |
| 2026-04-22 08:31 | -24.64521 | 17.36560 | 39182 ft | 433 kts | 343° |
| 2026-04-22 08:32 | -24.55583 | 17.35138 | 39182 ft | 433 kts | 343° |
| 2026-04-22 08:32 | -24.49620 | 17.34191 | 39189 ft | 433 kts | 343° |
| 2026-04-22 08:33 | -24.43656 | 17.33244 | 39193 ft | 433 kts | 343° |
| 2026-04-22 08:33 | -24.37678 | 17.32302 | 39199 ft | 434 kts | 343° |
| 2026-04-22 08:34 | -24.31706 | 17.31365 | 39195 ft | 434 kts | 343° |
| 2026-04-22 08:34 | -24.25768 | 17.30431 | 39196 ft | 434 kts | 343° |
| 2026-04-22 08:35 | -24.19799 | 17.29494 | 39208 ft | 433 kts | 343° |
| 2026-04-22 08:35 | -24.13841 | 17.28561 | 39219 ft | 432 kts | 343° |
| 2026-04-22 08:36 | -24.07884 | 17.27626 | 39229 ft | 432 kts | 343° |
| 2026-04-22 08:36 | -24.01931 | 17.26694 | 39231 ft | 433 kts | 343° |
| 2026-04-22 08:37 | -23.95969 | 17.25760 | 39233 ft | 433 kts | 343° |
| 2026-04-22 08:37 | -23.90004 | 17.24827 | 39227 ft | 433 kts | 343° |
| 2026-04-22 08:38 | -23.84035 | 17.23894 | 39241 ft | 433 kts | 343° |
| 2026-04-22 08:38 | -23.78073 | 17.22966 | 39241 ft | 434 kts | 343° |
| 2026-04-22 08:39 | -23.72095 | 17.22034 | 39240 ft | 434 kts | 343° |
| 2026-04-22 08:39 | -23.66122 | 17.21103 | 39240 ft | 434 kts | 343° |
| 2026-04-22 08:40 | -23.60147 | 17.20153 | 39241 ft | 434 kts | 343° |
| 2026-04-22 08:40 | -23.54179 | 17.19186 | 39250 ft | 433 kts | 343° |
| 2026-04-22 08:41 | -23.48221 | 17.18224 | 39249 ft | 434 kts | 343° |
| 2026-04-22 08:41 | -23.42252 | 17.17264 | 39246 ft | 434 kts | 343° |
| 2026-04-22 08:42 | -23.36316 | 17.16307 | 39247 ft | 434 kts | 343° |
| 2026-04-22 08:42 | -23.30345 | 17.15345 | 39253 ft | 434 kts | 343° |
| 2026-04-22 08:43 | -23.24371 | 17.14384 | 39252 ft | 434 kts | 343° |
| 2026-04-22 08:43 | -23.18392 | 17.13422 | 39249 ft | 434 kts | 343° |
| 2026-04-22 08:44 | -23.12504 | 17.12177 | 39257 ft | 430 kts | 339° |
| 2026-04-22 08:44 | -23.06674 | 17.10779 | 39262 ft | 430 kts | 339° |
| 2026-04-22 08:45 | -23.00824 | 17.09382 | 39260 ft | 430 kts | 339° |
| 2026-04-22 08:45 | -22.94978 | 17.07999 | 39259 ft | 430 kts | 339° |
| 2026-04-22 08:46 | -22.89122 | 17.06621 | 39252 ft | 431 kts | 339° |
| 2026-04-22 08:46 | -22.83260 | 17.05243 | 39257 ft | 431 kts | 339° |
| 2026-04-22 08:47 | -22.77404 | 17.03867 | 39265 ft | 430 kts | 339° |
| 2026-04-22 08:47 | -22.71550 | 17.02491 | 39274 ft | 431 kts | 339° |
| 2026-04-22 08:48 | -22.65690 | 17.01116 | 39265 ft | 431 kts | 339° |
| 2026-04-22 08:48 | -22.59826 | 16.99741 | 39261 ft | 431 kts | 339° |
| 2026-04-22 08:49 | -22.53965 | 16.98370 | 39267 ft | 430 kts | 339° |
| 2026-04-22 08:49 | -22.48114 | 16.97008 | 39271 ft | 430 kts | 339° |
| 2026-04-22 08:50 | -22.42262 | 16.95644 | 39262 ft | 430 kts | 339° |
| 2026-04-22 08:50 | -22.36424 | 16.94275 | 39258 ft | 429 kts | 339° |
| 2026-04-22 08:51 | -22.30607 | 16.92889 | 39259 ft | 428 kts | 339° |
| 2026-04-22 08:51 | -22.24816 | 16.91519 | 39259 ft | 430 kts | 339° |
| 2026-04-22 08:52 | -22.18958 | 16.90193 | 39259 ft | 431 kts | 339° |
| 2026-04-22 08:52 | -22.13087 | 16.88870 | 39252 ft | 431 kts | 339° |
| 2026-04-22 08:53 | -22.07209 | 16.87531 | 39251 ft | 431 kts | 339° |
| 2026-04-22 08:53 | -22.01345 | 16.86173 | 39247 ft | 432 kts | 339° |
| 2026-04-22 08:54 | -21.95472 | 16.84812 | 39240 ft | 432 kts | 339° |
| 2026-04-22 08:54 | -21.89589 | 16.83453 | 39238 ft | 432 kts | 339° |
| 2026-04-22 08:55 | -21.83708 | 16.82099 | 39238 ft | 432 kts | 339° |
| 2026-04-22 08:55 | -21.77821 | 16.80742 | 39228 ft | 433 kts | 339° |
| 2026-04-22 08:56 | -21.71941 | 16.79387 | 39233 ft | 433 kts | 339° |
| 2026-04-22 08:56 | -21.66042 | 16.78030 | 39234 ft | 434 kts | 339° |
| 2026-04-22 08:57 | -21.60138 | 16.76673 | 39223 ft | 434 kts | 339° |
| 2026-04-22 08:57 | -21.54225 | 16.75316 | 39220 ft | 434 kts | 339° |
| 2026-04-22 08:58 | -21.48319 | 16.73960 | 39218 ft | 434 kts | 339° |
| 2026-04-22 08:58 | -21.42408 | 16.72606 | 39206 ft | 434 kts | 339° |
| 2026-04-22 08:59 | -21.36495 | 16.71253 | 39205 ft | 434 kts | 339° |
| 2026-04-22 08:59 | -21.30591 | 16.69901 | 39199 ft | 434 kts | 339° |
| 2026-04-22 09:00 | -21.24681 | 16.68549 | 39206 ft | 434 kts | 339° |
| 2026-04-22 09:00 | -21.18770 | 16.67198 | 39199 ft | 435 kts | 339° |
| 2026-04-22 09:01 | -21.12894 | 16.65856 | 39197 ft | 435 kts | 339° |
| 2026-04-22 09:01 | -21.06971 | 16.64505 | 39193 ft | 435 kts | 339° |
| 2026-04-22 09:02 | -21.01044 | 16.63154 | 39191 ft | 435 kts | 339° |
| 2026-04-22 09:02 | -20.95122 | 16.61802 | 39182 ft | 435 kts | 339° |
| 2026-04-22 09:03 | -20.89189 | 16.60448 | 39193 ft | 436 kts | 339° |
| 2026-04-22 09:03 | -20.83247 | 16.59093 | 39183 ft | 437 kts | 339° |
| 2026-04-22 09:04 | -20.77295 | 16.57736 | 39184 ft | 438 kts | 339° |
| 2026-04-22 09:04 | -20.71321 | 16.56375 | 39173 ft | 439 kts | 339° |
| 2026-04-22 09:05 | -20.65353 | 16.55017 | 39166 ft | 439 kts | 339° |
| 2026-04-22 09:05 | -20.59371 | 16.53658 | 39159 ft | 439 kts | 339° |
| 2026-04-22 09:06 | -20.53381 | 16.52296 | 39168 ft | 441 kts | 339° |
| 2026-04-22 09:06 | -20.47357 | 16.50927 | 39167 ft | 444 kts | 339° |
| 2026-04-22 09:07 | -20.41307 | 16.49554 | 39169 ft | 446 kts | 339° |
| 2026-04-22 09:07 | -20.35230 | 16.48176 | 39163 ft | 448 kts | 339° |
| 2026-04-22 09:08 | -20.29129 | 16.46794 | 39155 ft | 449 kts | 339° |
| 2026-04-22 09:08 | -20.23012 | 16.45412 | 39163 ft | 450 kts | 339° |
| 2026-04-22 09:09 | -20.16886 | 16.44028 | 39159 ft | 450 kts | 339° |
| 2026-04-22 09:09 | -20.10768 | 16.42648 | 39159 ft | 449 kts | 339° |
| 2026-04-22 09:10 | -20.04653 | 16.41268 | 39155 ft | 449 kts | 339° |
| 2026-04-22 09:10 | -19.98584 | 16.39898 | 39146 ft | 449 kts | 339° |
| 2026-04-22 09:11 | -19.92472 | 16.38520 | 39150 ft | 449 kts | 339° |
| 2026-04-22 09:11 | -19.86346 | 16.37140 | 39151 ft | 450 kts | 339° |
| 2026-04-22 09:12 | -19.80217 | 16.35761 | 39144 ft | 450 kts | 339° |
| 2026-04-22 09:12 | -19.74089 | 16.34383 | 39139 ft | 450 kts | 339° |
| 2026-04-22 09:13 | -19.67959 | 16.33007 | 39140 ft | 450 kts | 339° |
| 2026-04-22 09:13 | -19.61825 | 16.31630 | 39129 ft | 451 kts | 339° |
| 2026-04-22 09:14 | -19.55679 | 16.30251 | 39128 ft | 451 kts | 339° |
| 2026-04-22 09:14 | -19.49540 | 16.28875 | 39119 ft | 451 kts | 339° |
| 2026-04-22 09:15 | -19.44430 | 16.27730 | 39115 ft | 451 kts | 339° |
| 2026-04-22 09:15 | -19.38246 | 16.26346 | 39109 ft | 452 kts | 339° |
| 2026-04-22 09:16 | -19.32089 | 16.24967 | 39108 ft | 452 kts | 339° |
| 2026-04-22 09:16 | -19.25965 | 16.23598 | 39101 ft | 453 kts | 340° |
| 2026-04-22 09:17 | -19.19785 | 16.22219 | 39098 ft | 454 kts | 340° |
| 2026-04-22 09:17 | -19.13591 | 16.20838 | 39091 ft | 455 kts | 340° |
| 2026-04-22 09:18 | -19.07385 | 16.19453 | 39088 ft | 456 kts | 340° |
| 2026-04-22 09:18 | -19.01160 | 16.18067 | 39080 ft | 457 kts | 340° |
| 2026-04-22 09:19 | -18.94934 | 16.16681 | 39083 ft | 458 kts | 340° |
| 2026-04-22 09:19 | -18.88687 | 16.15291 | 39071 ft | 459 kts | 340° |
| 2026-04-22 09:20 | -18.82422 | 16.13899 | 39068 ft | 460 kts | 340° |
| 2026-04-22 09:20 | -18.76152 | 16.12507 | 39062 ft | 461 kts | 340° |
| 2026-04-22 09:21 | -18.69868 | 16.11111 | 39058 ft | 462 kts | 340° |
| 2026-04-22 09:21 | -18.63575 | 16.09717 | 39055 ft | 463 kts | 340° |
| 2026-04-22 09:22 | -18.57269 | 16.08319 | 39047 ft | 464 kts | 340° |
| 2026-04-22 09:22 | -18.50946 | 16.06918 | 39045 ft | 464 kts | 340° |
| 2026-04-22 09:23 | -18.44622 | 16.05515 | 39040 ft | 465 kts | 341° |
| 2026-04-22 09:23 | -18.38283 | 16.04110 | 39036 ft | 466 kts | 341° |
| 2026-04-22 09:24 | -18.31928 | 16.02702 | 39038 ft | 467 kts | 341° |
| 2026-04-22 09:24 | -18.25569 | 16.01296 | 39028 ft | 468 kts | 341° |
| 2026-04-22 09:25 | -18.19196 | 15.99887 | 39027 ft | 468 kts | 341° |
| 2026-04-22 09:25 | -18.12821 | 15.98478 | 39030 ft | 468 kts | 341° |
| 2026-04-22 09:26 | -18.06442 | 15.97071 | 39028 ft | 469 kts | 341° |
| 2026-04-22 09:26 | -18.00054 | 15.95662 | 39025 ft | 469 kts | 341° |
| 2026-04-22 09:27 | -17.93673 | 15.94255 | 39022 ft | 469 kts | 341° |
| 2026-04-22 09:27 | -17.87292 | 15.92849 | 39012 ft | 469 kts | 341° |
| 2026-04-22 09:28 | -17.80908 | 15.91444 | 39017 ft | 468 kts | 341° |
| 2026-04-22 09:28 | -17.74575 | 15.90052 | 39026 ft | 468 kts | 341° |
| 2026-04-22 09:29 | -17.68206 | 15.88651 | 39029 ft | 468 kts | 341° |
| 2026-04-22 09:29 | -17.61838 | 15.87252 | 39028 ft | 468 kts | 341° |
| 2026-04-22 09:30 | -17.55468 | 15.85854 | 39039 ft | 468 kts | 341° |
| 2026-04-22 09:30 | -17.49095 | 15.84456 | 39048 ft | 468 kts | 341° |
| 2026-04-22 09:31 | -17.42716 | 15.83058 | 39058 ft | 468 kts | 341° |
| 2026-04-22 09:31 | -17.36404 | 15.81477 | 39077 ft | 464 kts | 336° |
| 2026-04-22 09:32 | -17.30222 | 15.79531 | 39080 ft | 464 kts | 336° |
| 2026-04-22 09:32 | -17.24037 | 15.77557 | 39092 ft | 465 kts | 336° |
| 2026-04-22 09:33 | -17.17837 | 15.75598 | 39098 ft | 467 kts | 336° |
| 2026-04-22 09:33 | -17.11605 | 15.73646 | 39104 ft | 468 kts | 336° |
| 2026-04-22 09:34 | -17.05360 | 15.71696 | 39104 ft | 469 kts | 336° |
| 2026-04-22 09:34 | -16.99096 | 15.69741 | 39104 ft | 470 kts | 336° |
| 2026-04-22 09:35 | -16.89696 | 15.66804 | 39102 ft | 470 kts | 337° |
| 2026-04-22 09:35 | -16.83418 | 15.64849 | 39100 ft | 471 kts | 337° |
| 2026-04-22 09:36 | -16.77134 | 15.62892 | 39103 ft | 472 kts | 337° |
| 2026-04-22 09:36 | -16.70843 | 15.60932 | 39102 ft | 472 kts | 337° |
| 2026-04-22 09:37 | -16.64552 | 15.58975 | 39108 ft | 472 kts | 337° |
| 2026-04-22 09:37 | -16.58297 | 15.57029 | 39112 ft | 472 kts | 337° |
| 2026-04-22 09:38 | -16.51996 | 15.55072 | 39109 ft | 473 kts | 337° |
| 2026-04-22 09:38 | -16.45691 | 15.53113 | 39112 ft | 473 kts | 337° |
| 2026-04-22 09:39 | -16.39379 | 15.51153 | 39115 ft | 473 kts | 337° |
| 2026-04-22 09:39 | -16.33067 | 15.49196 | 39121 ft | 474 kts | 337° |
| 2026-04-22 09:40 | -16.26749 | 15.47237 | 39120 ft | 474 kts | 337° |
| 2026-04-22 09:40 | -16.20429 | 15.45280 | 39123 ft | 474 kts | 337° |
| 2026-04-22 09:41 | -16.14104 | 15.43324 | 39130 ft | 474 kts | 337° |
| 2026-04-22 09:41 | -16.07775 | 15.41366 | 39139 ft | 475 kts | 337° |
| 2026-04-22 09:42 | -16.01447 | 15.39410 | 39140 ft | 475 kts | 337° |
| 2026-04-22 09:42 | -15.95112 | 15.37454 | 39139 ft | 475 kts | 338° |
| 2026-04-22 09:43 | -15.88776 | 15.35497 | 39150 ft | 476 kts | 338° |
| 2026-04-22 09:43 | -15.82418 | 15.33538 | 39151 ft | 477 kts | 338° |
| 2026-04-22 09:44 | -15.76061 | 15.31576 | 39157 ft | 477 kts | 338° |
| 2026-04-22 09:44 | -15.69692 | 15.29613 | 39166 ft | 478 kts | 338° |
| 2026-04-22 09:45 | -15.63353 | 15.27662 | 39166 ft | 478 kts | 338° |
| 2026-04-22 09:45 | -15.56923 | 15.25685 | 39175 ft | 479 kts | 338° |
| 2026-04-22 09:46 | -15.50577 | 15.23733 | 39173 ft | 479 kts | 338° |
| 2026-04-22 09:46 | -15.44194 | 15.21771 | 39183 ft | 479 kts | 338° |
| 2026-04-22 09:47 | -15.37802 | 15.19808 | 39187 ft | 479 kts | 338° |
| 2026-04-22 09:47 | -15.31413 | 15.17845 | 39197 ft | 479 kts | 338° |
| 2026-04-22 09:48 | -15.25015 | 15.15885 | 39204 ft | 480 kts | 338° |
| 2026-04-22 09:48 | -15.18613 | 15.13922 | 39211 ft | 480 kts | 338° |
| 2026-04-22 09:49 | -15.12208 | 15.11962 | 39204 ft | 480 kts | 338° |
| 2026-04-22 09:49 | -15.05793 | 15.09998 | 39205 ft | 481 kts | 338° |
| 2026-04-22 09:50 | -14.99385 | 15.08037 | 39206 ft | 481 kts | 338° |
| 2026-04-22 09:50 | -14.92964 | 15.06074 | 39216 ft | 481 kts | 338° |
| 2026-04-22 09:51 | -14.86539 | 15.04111 | 39200 ft | 482 kts | 338° |
| 2026-04-22 09:51 | -14.80113 | 15.02149 | 39195 ft | 482 kts | 338° |
| 2026-04-22 09:52 | -14.73676 | 15.00185 | 39201 ft | 482 kts | 338° |
| 2026-04-22 09:52 | -14.67237 | 14.98221 | 39183 ft | 483 kts | 338° |
| 2026-04-22 09:53 | -14.60842 | 14.96270 | 39182 ft | 483 kts | 338° |
| 2026-04-22 09:53 | -14.54389 | 14.94305 | 39183 ft | 483 kts | 338° |
| 2026-04-22 09:54 | -14.47940 | 14.92342 | 39181 ft | 484 kts | 339° |
| 2026-04-22 09:54 | -14.41483 | 14.90378 | 39175 ft | 484 kts | 339° |
| 2026-04-22 09:55 | -14.35012 | 14.88410 | 39175 ft | 484 kts | 339° |
| 2026-04-22 09:55 | -14.28547 | 14.86446 | 39176 ft | 485 kts | 339° |
| 2026-04-22 09:56 | -14.22065 | 14.84477 | 39172 ft | 485 kts | 339° |
| 2026-04-22 09:56 | -14.15595 | 14.82514 | 39175 ft | 485 kts | 339° |
| 2026-04-22 09:57 | -14.09113 | 14.80548 | 39168 ft | 486 kts | 339° |
| 2026-04-22 09:57 | -14.02632 | 14.78583 | 39168 ft | 486 kts | 339° |
| 2026-04-22 09:58 | -13.96150 | 14.76619 | 39156 ft | 486 kts | 339° |
| 2026-04-22 09:58 | -13.89646 | 14.74650 | 39157 ft | 487 kts | 339° |
| 2026-04-22 09:59 | -13.83135 | 14.72680 | 39153 ft | 488 kts | 339° |
| 2026-04-22 09:59 | -13.76620 | 14.70709 | 39152 ft | 489 kts | 339° |
| 2026-04-22 10:00 | -13.70131 | 14.68747 | 39147 ft | 489 kts | 339° |
| 2026-04-22 10:00 | -13.63590 | 14.66772 | 39138 ft | 490 kts | 339° |
| 2026-04-22 10:01 | -13.57053 | 14.64800 | 39143 ft | 489 kts | 339° |
| 2026-04-22 10:01 | -13.50522 | 14.62828 | 39131 ft | 489 kts | 339° |
| 2026-04-22 10:02 | -13.43993 | 14.60858 | 39126 ft | 490 kts | 339° |
| 2026-04-22 10:02 | -13.37451 | 14.58887 | 39121 ft | 490 kts | 339° |
| 2026-04-22 10:03 | -13.32008 | 14.57248 | 39116 ft | 490 kts | 339° |
| 2026-04-22 10:03 | -13.25463 | 14.55277 | 39105 ft | 490 kts | 339° |
| 2026-04-22 10:04 | -13.18920 | 14.53309 | 39103 ft | 490 kts | 339° |
| 2026-04-22 10:04 | -13.12370 | 14.51337 | 39094 ft | 490 kts | 339° |
| 2026-04-22 10:05 | -13.05816 | 14.49366 | 39085 ft | 491 kts | 339° |
| 2026-04-22 10:05 | -12.99256 | 14.47398 | 39072 ft | 491 kts | 339° |
| 2026-04-22 10:06 | -12.92707 | 14.45431 | 39072 ft | 491 kts | 340° |
| 2026-04-22 10:06 | -12.86129 | 14.43457 | 39058 ft | 492 kts | 340° |
| 2026-04-22 10:07 | -12.79556 | 14.41485 | 39051 ft | 492 kts | 340° |
| 2026-04-22 10:07 | -12.72979 | 14.39513 | 39045 ft | 493 kts | 340° |
| 2026-04-22 10:08 | -12.66386 | 14.37539 | 39037 ft | 494 kts | 340° |
| 2026-04-22 10:08 | -12.59826 | 14.35575 | 39014 ft | 494 kts | 340° |
| 2026-04-22 10:09 | -12.53219 | 14.33598 | 39027 ft | 495 kts | 340° |
| 2026-04-22 10:09 | -12.46618 | 14.31624 | 39016 ft | 495 kts | 340° |
| 2026-04-22 10:10 | -12.40001 | 14.29647 | 38989 ft | 496 kts | 340° |
| 2026-04-22 10:10 | -12.33370 | 14.27666 | 38981 ft | 496 kts | 340° |
| 2026-04-22 10:11 | -12.26746 | 14.25687 | 38973 ft | 496 kts | 340° |
| 2026-04-22 10:11 | -12.20117 | 14.23708 | 38970 ft | 496 kts | 340° |
| 2026-04-22 10:12 | -12.13484 | 14.21730 | 38974 ft | 496 kts | 340° |
| 2026-04-22 10:12 | -12.06854 | 14.19754 | 38973 ft | 496 kts | 340° |
| 2026-04-22 10:13 | -12.00230 | 14.17779 | 38969 ft | 496 kts | 340° |
| 2026-04-22 10:13 | -11.93597 | 14.15804 | 38964 ft | 497 kts | 340° |
| 2026-04-22 10:14 | -11.86966 | 14.13830 | 38960 ft | 497 kts | 340° |
| 2026-04-22 10:14 | -11.80325 | 14.11853 | 38971 ft | 497 kts | 340° |
| 2026-04-22 10:15 | -11.73683 | 14.09879 | 38963 ft | 497 kts | 340° |
| 2026-04-22 10:15 | -11.67038 | 14.07902 | 38961 ft | 497 kts | 340° |
| 2026-04-22 10:16 | -11.60400 | 14.05929 | 38965 ft | 497 kts | 340° |
| 2026-04-22 10:16 | -11.53760 | 14.03957 | 38961 ft | 497 kts | 341° |
| 2026-04-22 10:17 | -11.47114 | 14.01985 | 38965 ft | 497 kts | 341° |
| 2026-04-22 10:17 | -11.40522 | 14.00031 | 38968 ft | 497 kts | 341° |
| 2026-04-22 10:18 | -11.33880 | 13.98061 | 38959 ft | 497 kts | 341° |
| 2026-04-22 10:18 | -11.27248 | 13.96094 | 38965 ft | 496 kts | 341° |
| 2026-04-22 10:19 | -11.20619 | 13.94131 | 38962 ft | 496 kts | 341° |
| 2026-04-22 10:19 | -11.13998 | 13.92171 | 38967 ft | 495 kts | 341° |
| 2026-04-22 10:20 | -11.07379 | 13.90212 | 38961 ft | 495 kts | 341° |
| 2026-04-22 10:20 | -11.00764 | 13.88254 | 38964 ft | 495 kts | 341° |
| 2026-04-22 10:21 | -10.94150 | 13.86298 | 38965 ft | 495 kts | 341° |
| 2026-04-22 10:21 | -10.87541 | 13.84345 | 38959 ft | 495 kts | 341° |
| 2026-04-22 10:22 | -10.80933 | 13.82392 | 38965 ft | 494 kts | 342° |
| 2026-04-22 10:22 | -10.74330 | 13.80441 | 38956 ft | 494 kts | 342° |
| 2026-04-22 10:23 | -10.67726 | 13.78483 | 38954 ft | 494 kts | 342° |
| 2026-04-22 10:23 | -10.61134 | 13.76528 | 38948 ft | 493 kts | 342° |
| 2026-04-22 10:24 | -10.54549 | 13.74576 | 38952 ft | 493 kts | 342° |
| 2026-04-22 10:24 | -10.47958 | 13.72626 | 38944 ft | 493 kts | 342° |
| 2026-04-22 10:25 | -10.41425 | 13.70692 | 38946 ft | 492 kts | 342° |
| 2026-04-22 10:25 | -10.34844 | 13.68744 | 38940 ft | 492 kts | 342° |
| 2026-04-22 10:26 | -10.28270 | 13.66800 | 38938 ft | 492 kts | 342° |
| 2026-04-22 10:26 | -10.21690 | 13.64853 | 38935 ft | 492 kts | 342° |
| 2026-04-22 10:27 | -10.15107 | 13.62907 | 38932 ft | 493 kts | 342° |
| 2026-04-22 10:27 | -10.08524 | 13.60968 | 38923 ft | 493 kts | 342° |
| 2026-04-22 10:28 | -10.01932 | 13.59037 | 38921 ft | 493 kts | 342° |
| 2026-04-22 10:28 | -9.95344 | 13.57108 | 38914 ft | 493 kts | 342° |
| 2026-04-22 10:29 | -9.88756 | 13.55178 | 38913 ft | 493 kts | 342° |
| 2026-04-22 10:29 | -9.82167 | 13.53246 | 38915 ft | 492 kts | 343° |
| 2026-04-22 10:30 | -9.75589 | 13.51318 | 38907 ft | 492 kts | 343° |
| 2026-04-22 10:30 | -9.69019 | 13.49395 | 38909 ft | 492 kts | 343° |
| 2026-04-22 10:31 | -9.62441 | 13.47470 | 38904 ft | 492 kts | 343° |
| 2026-04-22 10:31 | -9.55859 | 13.45543 | 38895 ft | 492 kts | 343° |
| 2026-04-22 10:32 | -9.49283 | 13.43620 | 38888 ft | 492 kts | 343° |
| 2026-04-22 10:32 | -9.42706 | 13.41698 | 38889 ft | 492 kts | 343° |
| 2026-04-22 10:33 | -9.36136 | 13.39778 | 38891 ft | 491 kts | 343° |
| 2026-04-22 10:33 | -9.29567 | 13.37859 | 38889 ft | 491 kts | 343° |
| 2026-04-22 10:34 | -9.23007 | 13.35943 | 38889 ft | 491 kts | 343° |
| 2026-04-22 10:34 | -9.16447 | 13.34028 | 38890 ft | 491 kts | 343° |
| 2026-04-22 10:35 | -9.09883 | 13.32112 | 38890 ft | 490 kts | 343° |
| 2026-04-22 10:35 | -9.03368 | 13.30212 | 38888 ft | 490 kts | 343° |
| 2026-04-22 10:36 | -8.96824 | 13.28304 | 38889 ft | 490 kts | 344° |
| 2026-04-22 10:36 | -8.90267 | 13.26393 | 38887 ft | 490 kts | 344° |
| 2026-04-22 10:37 | -8.80585 | 13.23170 | 38890 ft | 489 kts | 338° |
| 2026-04-22 10:38 | -8.74316 | 13.20511 | 38887 ft | 489 kts | 337° |
| 2026-04-22 10:38 | -8.68049 | 13.17840 | 38890 ft | 488 kts | 337° |
| 2026-04-22 10:39 | -8.61779 | 13.15201 | 38888 ft | 488 kts | 338° |
| 2026-04-22 10:39 | -8.55503 | 13.12576 | 38890 ft | 488 kts | 338° |
| 2026-04-22 10:40 | -8.49230 | 13.09958 | 38890 ft | 488 kts | 338° |
| 2026-04-22 10:40 | -8.42957 | 13.07339 | 38890 ft | 488 kts | 338° |
| 2026-04-22 10:41 | -8.36676 | 13.04714 | 38890 ft | 489 kts | 338° |
| 2026-04-22 10:41 | -8.30432 | 13.02108 | 38889 ft | 489 kts | 338° |
| 2026-04-22 10:42 | -8.24153 | 12.99489 | 38890 ft | 489 kts | 338° |
| 2026-04-22 10:42 | -8.17868 | 12.96868 | 38888 ft | 488 kts | 338° |
| 2026-04-22 10:43 | -8.11592 | 12.94249 | 38892 ft | 488 kts | 338° |
| 2026-04-22 10:43 | -8.05317 | 12.91633 | 38888 ft | 488 kts | 338° |
| 2026-04-22 10:44 | -7.99035 | 12.89017 | 38890 ft | 488 kts | 338° |
| 2026-04-22 10:44 | -7.92763 | 12.86404 | 38890 ft | 488 kts | 338° |
| 2026-04-22 10:45 | -7.86479 | 12.83788 | 38889 ft | 488 kts | 338° |
| 2026-04-22 10:45 | -7.80198 | 12.81173 | 38886 ft | 488 kts | 338° |
| 2026-04-22 10:46 | -7.73917 | 12.78558 | 38888 ft | 488 kts | 338° |
| 2026-04-22 10:46 | -7.67638 | 12.75946 | 38891 ft | 488 kts | 338° |
| 2026-04-22 10:47 | -7.61356 | 12.73334 | 38897 ft | 488 kts | 338° |
| 2026-04-22 10:47 | -7.55078 | 12.70723 | 38897 ft | 488 kts | 338° |
| 2026-04-22 10:48 | -7.48799 | 12.68114 | 38898 ft | 489 kts | 338° |
| 2026-04-22 10:48 | -7.42516 | 12.65502 | 38898 ft | 488 kts | 338° |
| 2026-04-22 10:49 | -7.36228 | 12.62890 | 38898 ft | 488 kts | 338° |
| 2026-04-22 10:49 | -7.29986 | 12.60298 | 38898 ft | 488 kts | 338° |
| 2026-04-22 10:50 | -7.23703 | 12.57691 | 38897 ft | 488 kts | 339° |
| 2026-04-22 10:50 | -7.17419 | 12.55082 | 38899 ft | 488 kts | 339° |
| 2026-04-22 10:51 | -7.11131 | 12.52473 | 38909 ft | 488 kts | 339° |
| 2026-04-22 10:51 | -7.04852 | 12.49868 | 38907 ft | 488 kts | 339° |
| 2026-04-22 10:52 | -6.98562 | 12.47260 | 38909 ft | 489 kts | 339° |
| 2026-04-22 10:52 | -6.92279 | 12.44656 | 38910 ft | 489 kts | 339° |
| 2026-04-22 10:53 | -6.85991 | 12.42047 | 38910 ft | 489 kts | 339° |
| 2026-04-22 10:53 | -6.79705 | 12.39439 | 38908 ft | 489 kts | 339° |
| 2026-04-22 10:54 | -6.74483 | 12.37274 | 38904 ft | 489 kts | 339° |
| 2026-04-22 10:54 | -6.68204 | 12.34672 | 38905 ft | 488 kts | 339° |
| 2026-04-22 10:55 | -6.61919 | 12.32068 | 38907 ft | 488 kts | 339° |
| 2026-04-22 10:55 | -6.55643 | 12.29469 | 38908 ft | 488 kts | 339° |
| 2026-04-22 10:56 | -6.49361 | 12.26868 | 38902 ft | 488 kts | 339° |
| 2026-04-22 10:56 | -6.43091 | 12.24271 | 38907 ft | 487 kts | 339° |
| 2026-04-22 10:57 | -6.36824 | 12.21677 | 38909 ft | 487 kts | 339° |
| 2026-04-22 10:57 | -6.30553 | 12.19083 | 38903 ft | 487 kts | 339° |
| 2026-04-22 10:58 | -6.24285 | 12.16488 | 38911 ft | 487 kts | 339° |
| 2026-04-22 10:58 | -6.18007 | 12.13893 | 38909 ft | 488 kts | 339° |
| 2026-04-22 10:59 | -6.11739 | 12.11301 | 38909 ft | 487 kts | 339° |
| 2026-04-22 10:59 | -6.05460 | 12.08705 | 38905 ft | 487 kts | 339° |
| 2026-04-22 11:00 | -5.99190 | 12.06113 | 38906 ft | 488 kts | 339° |
| 2026-04-22 11:00 | -5.92912 | 12.03518 | 38907 ft | 488 kts | 339° |
| 2026-04-22 11:01 | -5.86630 | 12.00925 | 38907 ft | 488 kts | 339° |
| 2026-04-22 11:01 | -5.80400 | 11.98351 | 38906 ft | 488 kts | 339° |
| 2026-04-22 11:02 | -5.74123 | 11.95761 | 38920 ft | 488 kts | 339° |
| 2026-04-22 11:02 | -5.67847 | 11.93171 | 38918 ft | 488 kts | 339° |
| 2026-04-22 11:03 | -5.61576 | 11.90582 | 38919 ft | 488 kts | 339° |
| 2026-04-22 11:03 | -5.55293 | 11.87990 | 38914 ft | 488 kts | 339° |
| 2026-04-22 11:04 | -5.49017 | 11.85402 | 38919 ft | 487 kts | 339° |
| 2026-04-22 11:04 | -5.42751 | 11.82815 | 38919 ft | 487 kts | 339° |
| 2026-04-22 11:05 | -5.36474 | 11.80227 | 38911 ft | 487 kts | 339° |
| 2026-04-22 11:05 | -5.30201 | 11.77642 | 38920 ft | 488 kts | 339° |
| 2026-04-22 11:06 | -5.23929 | 11.75056 | 38916 ft | 487 kts | 339° |
| 2026-04-22 11:06 | -5.17652 | 11.72470 | 38920 ft | 487 kts | 339° |
| 2026-04-22 11:07 | -5.11210 | 11.70459 | 38925 ft | 485 kts | 350° |
| 2026-04-22 11:07 | -5.04533 | 11.69635 | 38917 ft | 483 kts | 358° |
| 2026-04-22 11:08 | -4.97825 | 11.69228 | 38916 ft | 483 kts | 358° |
| 2026-04-22 11:08 | -4.91111 | 11.68812 | 38918 ft | 484 kts | 358° |
| 2026-04-22 11:09 | -4.84391 | 11.68362 | 38916 ft | 484 kts | 358° |
| 2026-04-22 11:09 | -4.77678 | 11.67898 | 38919 ft | 484 kts | 358° |
| 2026-04-22 11:10 | -4.70952 | 11.67435 | 38914 ft | 484 kts | 358° |
| 2026-04-22 11:10 | -4.64238 | 11.66974 | 38913 ft | 484 kts | 358° |
| 2026-04-22 11:11 | -4.57515 | 11.66511 | 38916 ft | 484 kts | 358° |
| 2026-04-22 11:11 | -4.50790 | 11.66050 | 38913 ft | 484 kts | 358° |
| 2026-04-22 11:12 | -4.44112 | 11.65592 | 38920 ft | 484 kts | 358° |
| 2026-04-22 11:12 | -4.37390 | 11.65131 | 38916 ft | 485 kts | 358° |
| 2026-04-22 11:13 | -4.30664 | 11.64668 | 38915 ft | 484 kts | 358° |
| 2026-04-22 11:13 | -4.23943 | 11.64208 | 38918 ft | 484 kts | 358° |
| 2026-04-22 11:14 | -4.17214 | 11.63747 | 38918 ft | 484 kts | 358° |
| 2026-04-22 11:14 | -4.10499 | 11.63288 | 38917 ft | 484 kts | 358° |
| 2026-04-22 11:15 | -4.03767 | 11.62828 | 38899 ft | 485 kts | 358° |
| 2026-04-22 11:15 | -3.97042 | 11.62367 | 38893 ft | 485 kts | 358° |
| 2026-04-22 11:16 | -3.90314 | 11.61907 | 38888 ft | 484 kts | 358° |
| 2026-04-22 11:16 | -3.83591 | 11.61446 | 38893 ft | 484 kts | 358° |
| 2026-04-22 11:17 | -3.76874 | 11.60986 | 38885 ft | 484 kts | 358° |
| 2026-04-22 11:17 | -3.70158 | 11.60527 | 38894 ft | 484 kts | 358° |
| 2026-04-22 11:18 | -3.63467 | 11.59826 | 38902 ft | 485 kts | 350° |
| 2026-04-22 11:18 | -3.56892 | 11.58256 | 38902 ft | 486 kts | 347° |
| 2026-04-22 11:19 | -3.50331 | 11.56594 | 38899 ft | 486 kts | 347° |
| 2026-04-22 11:19 | -3.43768 | 11.54964 | 38898 ft | 486 kts | 348° |
| 2026-04-22 11:20 | -3.37196 | 11.53360 | 38899 ft | 486 kts | 348° |
| 2026-04-22 11:20 | -3.30676 | 11.51775 | 38900 ft | 485 kts | 348° |
| 2026-04-22 11:21 | -3.24117 | 11.50181 | 38898 ft | 485 kts | 347° |
| 2026-04-22 11:21 | -3.17564 | 11.48586 | 38902 ft | 484 kts | 347° |
| 2026-04-22 11:22 | -3.11026 | 11.46995 | 38910 ft | 484 kts | 347° |
| 2026-04-22 11:22 | -3.04493 | 11.45406 | 38906 ft | 483 kts | 347° |
| 2026-04-22 11:23 | -2.97961 | 11.43817 | 38907 ft | 483 kts | 347° |
| 2026-04-22 11:23 | -2.91429 | 11.42229 | 38911 ft | 483 kts | 347° |
| 2026-04-22 11:24 | -2.84901 | 11.40643 | 38908 ft | 483 kts | 347° |
| 2026-04-22 11:24 | -2.78373 | 11.39055 | 38906 ft | 483 kts | 347° |
| 2026-04-22 11:25 | -2.71848 | 11.37467 | 38903 ft | 483 kts | 347° |
| 2026-04-22 11:25 | -2.65362 | 11.35891 | 38895 ft | 482 kts | 347° |
| 2026-04-22 11:26 | -2.58811 | 11.34299 | 38899 ft | 481 kts | 347° |
| 2026-04-22 11:26 | -2.52304 | 11.32717 | 38897 ft | 481 kts | 347° |
| 2026-04-22 11:27 | -2.45801 | 11.31138 | 38900 ft | 481 kts | 347° |
| 2026-04-22 11:27 | -2.39342 | 11.29571 | 38899 ft | 481 kts | 347° |
| 2026-04-22 11:28 | -2.32843 | 11.27991 | 38900 ft | 481 kts | 347° |
| 2026-04-22 11:28 | -2.26338 | 11.26410 | 38900 ft | 481 kts | 347° |
| 2026-04-22 11:29 | -2.19842 | 11.24832 | 38896 ft | 481 kts | 347° |
| 2026-04-22 11:29 | -2.13337 | 11.23251 | 38901 ft | 481 kts | 347° |
| 2026-04-22 11:30 | -2.06830 | 11.21671 | 38896 ft | 481 kts | 347° |
| 2026-04-22 11:30 | -2.00318 | 11.20089 | 38899 ft | 481 kts | 347° |
| 2026-04-22 11:31 | -1.93806 | 11.18508 | 38902 ft | 481 kts | 347° |
| 2026-04-22 11:31 | -1.87309 | 11.16930 | 38895 ft | 481 kts | 347° |
| 2026-04-22 11:32 | -1.80802 | 11.15350 | 38897 ft | 481 kts | 347° |
| 2026-04-22 11:32 | -1.74309 | 11.13773 | 38897 ft | 481 kts | 347° |
| 2026-04-22 11:33 | -1.67821 | 11.12198 | 38899 ft | 480 kts | 347° |
| 2026-04-22 11:33 | -1.61329 | 11.10622 | 38899 ft | 480 kts | 347° |
| 2026-04-22 11:34 | -1.54850 | 11.09051 | 38899 ft | 479 kts | 347° |
| 2026-04-22 11:34 | -1.48371 | 11.07479 | 38900 ft | 479 kts | 347° |
| 2026-04-22 11:35 | -1.41898 | 11.05908 | 38899 ft | 478 kts | 347° |
| 2026-04-22 11:35 | -1.35473 | 11.04348 | 38899 ft | 478 kts | 347° |
| 2026-04-22 11:36 | -1.29005 | 11.02779 | 38898 ft | 478 kts | 347° |
| 2026-04-22 11:36 | -1.24067 | 11.01580 | 38909 ft | 479 kts | 347° |
| 2026-04-22 11:37 | -1.17617 | 11.00017 | 38899 ft | 480 kts | 347° |
| 2026-04-22 11:37 | -1.11088 | 10.98432 | 38905 ft | 480 kts | 347° |
| 2026-04-22 11:38 | -1.04599 | 10.96856 | 38905 ft | 480 kts | 347° |
| 2026-04-22 11:38 | -0.94870 | 10.94496 | 38908 ft | 480 kts | 347° |
| 2026-04-22 11:39 | -0.88375 | 10.92921 | 38904 ft | 479 kts | 347° |
| 2026-04-22 11:39 | -0.81902 | 10.91351 | 38900 ft | 479 kts | 347° |
| 2026-04-22 11:40 | -0.75434 | 10.89781 | 38898 ft | 479 kts | 347° |
| 2026-04-22 11:40 | -0.68958 | 10.88210 | 38898 ft | 478 kts | 347° |
| 2026-04-22 11:41 | -0.62490 | 10.86641 | 38892 ft | 478 kts | 347° |
| 2026-04-22 11:41 | -0.56031 | 10.85073 | 38899 ft | 478 kts | 347° |
| 2026-04-22 11:42 | -0.49573 | 10.83503 | 38896 ft | 478 kts | 347° |
| 2026-04-22 11:42 | -0.44205 | 10.82201 | 38900 ft | 478 kts | 347° |
| 2026-04-22 11:43 | -0.37738 | 10.80632 | 38898 ft | 478 kts | 347° |
| 2026-04-22 11:43 | -0.30225 | 10.78808 | 38898 ft | 478 kts | 347° |
| 2026-04-22 11:44 | -0.23766 | 10.77239 | 38897 ft | 478 kts | 347° |
| 2026-04-22 11:44 | -0.18353 | 10.75926 | 38901 ft | 478 kts | 347° |
| 2026-04-22 11:45 | -0.11924 | 10.74364 | 38898 ft | 478 kts | 347° |
| 2026-04-22 11:45 | -0.05456 | 10.72795 | 38900 ft | 478 kts | 347° |
| 2026-04-22 11:46 | 0.01006 | 10.71226 | 38898 ft | 478 kts | 347° |
| 2026-04-22 11:46 | 0.07480 | 10.69653 | 38897 ft | 479 kts | 347° |
| 2026-04-22 11:47 | 0.13949 | 10.68080 | 38896 ft | 479 kts | 347° |
| 2026-04-22 11:47 | 0.20426 | 10.66506 | 38890 ft | 479 kts | 347° |
| 2026-04-22 11:48 | 0.26892 | 10.64934 | 38887 ft | 479 kts | 347° |
| 2026-04-22 11:48 | 0.33371 | 10.63359 | 38890 ft | 479 kts | 347° |
| 2026-04-22 11:49 | 0.39853 | 10.61784 | 38887 ft | 479 kts | 347° |
| 2026-04-22 11:49 | 0.46331 | 10.60210 | 38886 ft | 479 kts | 347° |
| 2026-04-22 11:50 | 0.52793 | 10.58632 | 38890 ft | 478 kts | 347° |
| 2026-04-22 11:50 | 0.59262 | 10.57064 | 38890 ft | 478 kts | 347° |
| 2026-04-22 11:51 | 0.65729 | 10.55498 | 38899 ft | 478 kts | 347° |
| 2026-04-22 11:51 | 0.72188 | 10.53930 | 38888 ft | 478 kts | 347° |
| 2026-04-22 11:52 | 0.78664 | 10.52355 | 38887 ft | 479 kts | 347° |
| 2026-04-22 11:52 | 0.85146 | 10.50781 | 38894 ft | 480 kts | 347° |
| 2026-04-22 11:53 | 0.91651 | 10.49199 | 38890 ft | 481 kts | 347° |
| 2026-04-22 11:53 | 0.98146 | 10.47625 | 38890 ft | 481 kts | 347° |
| 2026-04-22 11:54 | 1.04654 | 10.46047 | 38888 ft | 481 kts | 347° |
| 2026-04-22 11:54 | 1.11166 | 10.44466 | 38888 ft | 481 kts | 347° |
| 2026-04-22 11:55 | 1.17677 | 10.42885 | 38888 ft | 481 kts | 347° |
| 2026-04-22 11:55 | 1.24183 | 10.41308 | 38890 ft | 481 kts | 347° |
| 2026-04-22 11:56 | 1.30697 | 10.39727 | 38888 ft | 481 kts | 347° |
| 2026-04-22 11:56 | 1.37200 | 10.38149 | 38887 ft | 481 kts | 347° |
| 2026-04-22 11:57 | 1.43712 | 10.36567 | 38890 ft | 481 kts | 347° |
| 2026-04-22 11:57 | 1.50223 | 10.34986 | 38889 ft | 482 kts | 347° |
| 2026-04-22 11:58 | 1.56700 | 10.33413 | 38891 ft | 482 kts | 347° |
| 2026-04-22 11:58 | 1.63262 | 10.31820 | 38891 ft | 482 kts | 347° |
| 2026-04-22 11:59 | 1.69740 | 10.30246 | 38888 ft | 483 kts | 347° |
| 2026-04-22 11:59 | 1.76274 | 10.28748 | 38877 ft | 480 kts | 354° |
| 2026-04-22 12:00 | 1.79604 | 10.28795 | 38894 ft | 478 kts | 9° |
| 2026-04-22 12:00 | 1.82815 | 10.29649 | 38894 ft | 478 kts | 23° |
| 2026-04-22 12:00 | 1.85718 | 10.31238 | 38878 ft | 475 kts | 34° |
| 2026-04-22 12:00 | 1.88445 | 10.33096 | 38888 ft | 477 kts | 35° |
| 2026-04-22 12:01 | 1.93925 | 10.36863 | 38892 ft | 479 kts | 34° |
| 2026-04-22 12:01 | 1.99464 | 10.40599 | 38895 ft | 481 kts | 34° |
| 2026-04-22 12:02 | 2.05043 | 10.44306 | 38891 ft | 483 kts | 34° |
| 2026-04-22 12:02 | 2.10658 | 10.48025 | 38889 ft | 483 kts | 34° |
| 2026-04-22 12:03 | 2.16261 | 10.51740 | 38890 ft | 484 kts | 34° |
| 2026-04-22 12:03 | 2.21869 | 10.55460 | 38886 ft | 484 kts | 34° |
| 2026-04-22 12:04 | 2.27472 | 10.59179 | 38895 ft | 483 kts | 34° |
| 2026-04-22 12:04 | 2.33067 | 10.62893 | 38900 ft | 483 kts | 34° |
| 2026-04-22 12:05 | 2.38665 | 10.66609 | 38896 ft | 483 kts | 34° |
| 2026-04-22 12:05 | 2.41469 | 10.68471 | 38490 ft | 489 kts | 34° |
| 2026-04-22 12:05 | 2.44467 | 10.70108 | 37515 ft | 493 kts | 20° |
| 2026-04-22 12:06 | 2.47792 | 10.70875 | 36651 ft | 493 kts | 4° |
| 2026-04-22 12:06 | 2.51158 | 10.70689 | 35813 ft | 492 kts | 349° |
| 2026-04-22 12:06 | 2.54435 | 10.69696 | 34801 ft | 495 kts | 335° |
| 2026-04-22 12:06 | 2.57379 | 10.67927 | 33765 ft | 495 kts | 327° |
| 2026-04-22 12:07 | 2.60242 | 10.65984 | 32676 ft | 498 kts | 326° |
| 2026-04-22 12:07 | 2.63095 | 10.64031 | 31577 ft | 499 kts | 327° |
| 2026-04-22 12:07 | 2.65969 | 10.62078 | 30407 ft | 498 kts | 327° |
| 2026-04-22 12:07 | 2.68838 | 10.60153 | 29448 ft | 493 kts | 327° |
| 2026-04-22 12:08 | 2.71669 | 10.58272 | 28607 ft | 485 kts | 328° |
| 2026-04-22 12:08 | 2.74463 | 10.56431 | 27798 ft | 479 kts | 328° |
| 2026-04-22 12:08 | 2.77234 | 10.54613 | 27006 ft | 473 kts | 328° |
| 2026-04-22 12:08 | 2.79973 | 10.52819 | 26231 ft | 469 kts | 328° |
| 2026-04-22 12:09 | 2.82688 | 10.51042 | 25459 ft | 465 kts | 328° |
| 2026-04-22 12:09 | 2.85382 | 10.49277 | 24690 ft | 461 kts | 328° |
| 2026-04-22 12:09 | 2.88058 | 10.47522 | 23926 ft | 458 kts | 327° |
| 2026-04-22 12:09 | 2.90709 | 10.45784 | 23172 ft | 455 kts | 327° |
| 2026-04-22 12:10 | 2.93329 | 10.44065 | 22431 ft | 452 kts | 327° |
| 2026-04-22 12:10 | 2.95972 | 10.42331 | 21692 ft | 450 kts | 328° |
| 2026-04-22 12:10 | 2.98576 | 10.40620 | 20968 ft | 447 kts | 328° |
| 2026-04-22 12:10 | 3.01171 | 10.38915 | 20249 ft | 446 kts | 328° |
| 2026-04-22 12:11 | 3.03754 | 10.37217 | 19540 ft | 443 kts | 328° |
| 2026-04-22 12:11 | 3.06332 | 10.35525 | 18826 ft | 442 kts | 328° |
| 2026-04-22 12:11 | 3.08895 | 10.33843 | 18123 ft | 440 kts | 328° |
| 2026-04-22 12:11 | 3.11448 | 10.32165 | 17442 ft | 438 kts | 328° |
| 2026-04-22 12:12 | 3.13987 | 10.30498 | 16757 ft | 435 kts | 328° |
| 2026-04-22 12:12 | 3.16522 | 10.28857 | 16112 ft | 431 kts | 330° |
| 2026-04-22 12:12 | 3.19121 | 10.27427 | 15609 ft | 422 kts | 335° |
| 2026-04-22 12:12 | 3.21714 | 10.26110 | 15115 ft | 415 kts | 336° |
| 2026-04-22 12:13 | 3.24273 | 10.24835 | 14577 ft | 409 kts | 336° |
| 2026-04-22 12:13 | 3.26808 | 10.23571 | 14004 ft | 404 kts | 336° |
| 2026-04-22 12:13 | 3.29309 | 10.22315 | 13430 ft | 400 kts | 336° |
| 2026-04-22 12:13 | 3.31776 | 10.21066 | 12841 ft | 396 kts | 336° |
| 2026-04-22 12:14 | 3.34225 | 10.19820 | 12174 ft | 394 kts | 336° |
| 2026-04-22 12:14 | 3.36662 | 10.18576 | 11489 ft | 393 kts | 336° |
| 2026-04-22 12:14 | 3.39096 | 10.17333 | 10751 ft | 392 kts | 335° |
| 2026-04-22 12:14 | 3.41522 | 10.16092 | 10042 ft | 391 kts | 334° |
| 2026-04-22 12:15 | 3.43933 | 10.14858 | 9406 ft | 388 kts | 334° |
| 2026-04-22 12:15 | 3.46327 | 10.13633 | 8797 ft | 383 kts | 333° |
| 2026-04-22 12:15 | 3.48690 | 10.12425 | 8194 ft | 379 kts | 333° |
| 2026-04-22 12:15 | 3.51026 | 10.11228 | 7596 ft | 376 kts | 333° |
| 2026-04-22 12:16 | 3.53342 | 10.10042 | 7014 ft | 372 kts | 333° |
| 2026-04-22 12:16 | 3.55632 | 10.08868 | 6500 ft | 366 kts | 333° |
| 2026-04-22 12:16 | 3.57851 | 10.07734 | 6397 ft | 349 kts | 333° |
| 2026-04-22 12:16 | 3.59966 | 10.06649 | 6292 ft | 334 kts | 333° |
| 2026-04-22 12:17 | 3.61990 | 10.05612 | 6187 ft | 319 kts | 333° |
| 2026-04-22 12:17 | 3.63927 | 10.04622 | 6090 ft | 306 kts | 333° |
| 2026-04-22 12:17 | 3.65782 | 10.03671 | 6001 ft | 294 kts | 333° |
| 2026-04-22 12:17 | 3.67570 | 10.02756 | 5913 ft | 283 kts | 333° |
| 2026-04-22 12:18 | 3.69273 | 10.01886 | 5784 ft | 274 kts | 333° |
| 2026-04-22 12:18 | 3.70951 | 10.01025 | 5581 ft | 269 kts | 333° |
| 2026-04-22 12:18 | 3.72594 | 10.00183 | 5402 ft | 263 kts | 333° |
| 2026-04-22 12:18 | 3.74212 | 9.99354 | 5150 ft | 260 kts | 333° |
| 2026-04-22 12:19 | 3.75817 | 9.98529 | 4879 ft | 259 kts | 333° |
| 2026-04-22 12:19 | 3.77416 | 9.97711 | 4605 ft | 257 kts | 332° |
| 2026-04-22 12:19 | 3.79010 | 9.96895 | 4332 ft | 259 kts | 332° |
| 2026-04-22 12:19 | 3.80627 | 9.96066 | 4061 ft | 264 kts | 332° |
| 2026-04-22 12:20 | 3.82265 | 9.95227 | 3871 ft | 261 kts | 332° |
| 2026-04-22 12:20 | 3.83862 | 9.94406 | 3735 ft | 254 kts | 332° |
| 2026-04-22 12:20 | 3.85411 | 9.93612 | 3610 ft | 247 kts | 332° |
| 2026-04-22 12:20 | 3.86914 | 9.92843 | 3507 ft | 238 kts | 332° |
| 2026-04-22 12:21 | 3.88365 | 9.92099 | 3395 ft | 230 kts | 332° |
| 2026-04-22 12:21 | 3.89773 | 9.91378 | 3209 ft | 225 kts | 332° |
| 2026-04-22 12:21 | 3.90987 | 9.90480 | 3048 ft | 211 kts | 306° |
| 2026-04-22 12:21 | 3.91767 | 9.89280 | 3039 ft | 203 kts | 300° |
| 2026-04-22 12:22 | 3.92463 | 9.88054 | 3089 ft | 204 kts | 297° |
| 2026-04-22 12:22 | 3.93118 | 9.86789 | 2999 ft | 206 kts | 296° |
| 2026-04-22 12:22 | 3.93766 | 9.85503 | 2719 ft | 205 kts | 296° |
| 2026-04-22 12:22 | 3.94400 | 9.84246 | 2452 ft | 198 kts | 296° |
| 2026-04-22 12:23 | 3.95000 | 9.83057 | 2187 ft | 184 kts | 296° |
| 2026-04-22 12:23 | 3.95554 | 9.81958 | 1988 ft | 174 kts | 296° |
| 2026-04-22 12:23 | 3.96089 | 9.80893 | 1770 ft | 169 kts | 296° |
| 2026-04-22 12:23 | 3.96622 | 9.79837 | 1536 ft | 171 kts | 296° |
| 2026-04-22 12:24 | 3.97157 | 9.78776 | 1296 ft | 168 kts | 297° |
| 2026-04-22 12:24 | 3.97657 | 9.77784 | 1066 ft | 152 kts | 298° |
| 2026-04-22 12:24 | 3.98116 | 9.76877 | 867 ft | 141 kts | 298° |
| 2026-04-22 12:24 | 3.98558 | 9.76000 | 690 ft | 140 kts | 297° |
| 2026-04-22 12:25 | 3.98991 | 9.75141 | 512 ft | 140 kts | 297° |
| 2026-04-22 12:25 | 3.99435 | 9.74264 | 330 ft | 139 kts | 298° |
| 2026-04-22 12:25 | 3.99874 | 9.73410 | 138 ft | 140 kts | 298° |
| 2026-04-22 12:25 | 4.00310 | 9.72553 | 33 ft | 125 kts | 297° |
| 2026-04-22 12:26 | 4.00548 | 9.72081 | 36 ft | 101 kts | 297° |
| 2026-04-22 12:26 | 4.00849 | 9.71484 | 37 ft | 42 kts | 297° |
| 2026-04-22 12:26 | 4.00927 | 9.71335 | 41 ft | 17 kts | 312° |
| 2026-04-22 12:26 | 4.00999 | 9.71342 | 41 ft | 11 kts | 35° |
| 2026-04-22 12:27 | 4.01058 | 9.71388 | 42 ft | 11 kts | 55° |
| 2026-04-22 12:27 | 4.01043 | 9.71460 | 41 ft | 11 kts | 120° |
| 2026-04-22 12:27 | 4.01003 | 9.71528 | 39 ft | 11 kts | 121° |
| 2026-04-22 12:27 | 4.00963 | 9.71597 | 40 ft | 11 kts | 121° |
| 2026-04-22 12:28 | 4.00930 | 9.71668 | 40 ft | 11 kts | 109° |
| 2026-04-22 12:28 | 4.00957 | 9.71732 | 39 ft | 10 kts | 35° |
| 2026-04-22 12:28 | 4.01017 | 9.71765 | 38 ft | 10 kts | 28° |
| 2026-04-22 12:28 | 4.01078 | 9.71795 | 39 ft | 9 kts | 25° |
| 2026-04-22 12:29 | 4.01128 | 9.71789 | 39 ft | 8 kts | 314° |
| 2026-04-22 12:29 | 4.01139 | 9.71770 | 40 ft | 0 kts | 302° |